sensor_id;sensor_type;location;lat;lon;timestamp;pressure;altitude;pressure_sealevel;temperature;humidity
32733;BME280;11867;51.198;11.966;2023-04-10T00:00:06;101409.31;;;5.36;89.25
32733;BME280;11867;51.198;11.966;2023-04-10T00:01:10;101409.75;;;5.33;89.14
32733;BME280;11867;51.198;11.966;2023-04-10T00:02:11;101399.44;;;5.49;89.01
32733;BME280;11867;51.198;11.966;2023-04-10T00:03:14;101410.34;;;5.35;89.11
32733;BME280;11867;51.198;11.966;2023-04-10T00:04:18;101409.84;;;5.20;89.67
32733;BME280;11867;51.198;11.966;2023-04-10T00:05:22;101407.19;;;5.13;89.85
32733;BME280;11867;51.198;11.966;2023-04-10T00:06:24;101413.84;;;4.79;91.22
32733;BME280;11867;51.198;11.966;2023-04-10T00:07:28;101403.59;;;4.88;91.43
32733;BME280;11867;51.198;11.966;2023-04-10T00:08:30;101405.31;;;4.37;92.88
32733;BME280;11867;51.198;11.966;2023-04-10T00:09:34;101408.84;;;4.31;94.84
32733;BME280;11867;51.198;11.966;2023-04-10T00:10:35;101403.59;;;4.49;93.90
32733;BME280;11867;51.198;11.966;2023-04-10T00:11:38;101404.47;;;4.30;95.02
32733;BME280;11867;51.198;11.966;2023-04-10T00:12:39;101406.91;;;4.51;94.69
32733;BME280;11867;51.198;11.966;2023-04-10T00:13:42;101406.63;;;4.14;95.24
32733;BME280;11867;51.198;11.966;2023-04-10T00:14:43;101402.44;;;4.18;96.44
32733;BME280;11867;51.198;11.966;2023-04-10T00:15:46;101409.53;;;4.06;97.22
32733;BME280;11867;51.198;11.966;2023-04-10T00:16:51;101399.25;;;4.41;96.17
32733;BME280;11867;51.198;11.966;2023-04-10T00:17:53;101406.06;;;4.57;94.11
32733;BME280;11867;51.198;11.966;2023-04-10T00:18:55;101407.66;;;4.72;93.63
32733;BME280;11867;51.198;11.966;2023-04-10T00:19:58;101402.47;;;5.02;92.35
32733;BME280;11867;51.198;11.966;2023-04-10T00:21:01;101408.63;;;4.84;91.16
32733;BME280;11867;51.198;11.966;2023-04-10T00:22:04;101407.94;;;4.95;91.40
32733;BME280;11867;51.198;11.966;2023-04-10T00:23:06;101412.91;;;5.30;89.98
32733;BME280;11867;51.198;11.966;2023-04-10T00:24:08;101406.00;;;5.34;89.00
32733;BME280;11867;51.198;11.966;2023-04-10T00:25:11;101412.28;;;5.53;88.49
32733;BME280;11867;51.198;11.966;2023-04-10T00:26:13;101403.97;;;5.55;87.79
32733;BME280;11867;51.198;11.966;2023-04-10T00:27:15;101400.38;;;5.61;87.61
32733;BME280;11867;51.198;11.966;2023-04-10T00:28:18;101400.25;;;5.74;86.92
32733;BME280;11867;51.198;11.966;2023-04-10T00:29:19;101401.91;;;5.75;86.70
32733;BME280;11867;51.198;11.966;2023-04-10T00:30:22;101402.06;;;5.80;85.97
32733;BME280;11867;51.198;11.966;2023-04-10T00:31:23;101399.09;;;5.63;86.11
32733;BME280;11867;51.198;11.966;2023-04-10T00:32:26;101401.38;;;5.10;87.19
32733;BME280;11867;51.198;11.966;2023-04-10T00:33:28;101404.28;;;4.76;89.56
32733;BME280;11867;51.198;11.966;2023-04-10T00:34:30;101396.47;;;4.10;93.37
32733;BME280;11867;51.198;11.966;2023-04-10T00:35:32;101395.47;;;3.77;95.25
32733;BME280;11867;51.198;11.966;2023-04-10T00:36:35;101397.53;;;3.82;96.91
32733;BME280;11867;51.198;11.966;2023-04-10T00:37:37;101386.38;;;3.78;96.69
32733;BME280;11867;51.198;11.966;2023-04-10T00:38:39;101385.53;;;3.84;96.88
32733;BME280;11867;51.198;11.966;2023-04-10T00:39:40;101400.84;;;3.97;96.43
32733;BME280;11867;51.198;11.966;2023-04-10T00:40:44;101386.16;;;3.60;97.18
32733;BME280;11867;51.198;11.966;2023-04-10T00:41:46;101386.56;;;3.30;98.96
32733;BME280;11867;51.198;11.966;2023-04-10T00:42:49;101380.78;;;3.40;99.75
32733;BME280;11867;51.198;11.966;2023-04-10T00:43:54;101387.63;;;3.62;99.31
32733;BME280;11867;51.198;11.966;2023-04-10T00:44:56;101382.00;;;3.57;98.33
32733;BME280;11867;51.198;11.966;2023-04-10T00:46:01;101386.16;;;3.53;98.65
32733;BME280;11867;51.198;11.966;2023-04-10T00:47:04;101383.47;;;3.27;99.79
32733;BME280;11867;51.198;11.966;2023-04-10T00:48:06;101389.91;;;3.12;100.00
32733;BME280;11867;51.198;11.966;2023-04-10T00:49:09;101380.75;;;3.13;100.00
32733;BME280;11867;51.198;11.966;2023-04-10T00:50:11;101386.75;;;2.95;100.00
32733;BME280;11867;51.198;11.966;2023-04-10T00:51:13;101379.75;;;3.14;100.00
32733;BME280;11867;51.198;11.966;2023-04-10T00:52:15;101381.59;;;3.34;100.00
32733;BME280;11867;51.198;11.966;2023-04-10T00:53:19;101376.00;;;3.22;100.00
32733;BME280;11867;51.198;11.966;2023-04-10T00:54:20;101377.88;;;3.41;99.37
32733;BME280;11867;51.198;11.966;2023-04-10T00:55:24;101384.72;;;3.64;98.60
32733;BME280;11867;51.198;11.966;2023-04-10T00:56:29;101389.44;;;3.82;98.19
32733;BME280;11867;51.198;11.966;2023-04-10T00:57:32;101377.84;;;3.61;96.89
32733;BME280;11867;51.198;11.966;2023-04-10T00:58:34;101377.03;;;3.74;97.24
32733;BME280;11867;51.198;11.966;2023-04-10T00:59:37;101378.28;;;3.65;97.65
32733;BME280;11867;51.198;11.966;2023-04-10T01:00:39;101376.00;;;3.69;96.55
32733;BME280;11867;51.198;11.966;2023-04-10T01:01:42;101379.72;;;3.68;96.39
32733;BME280;11867;51.198;11.966;2023-04-10T01:02:44;101376.00;;;3.42;98.02
32733;BME280;11867;51.198;11.966;2023-04-10T01:03:46;101377.66;;;3.63;97.80
32733;BME280;11867;51.198;11.966;2023-04-10T01:04:48;101376.84;;;3.56;97.14
32733;BME280;11867;51.198;11.966;2023-04-10T01:06:07;101371.25;;;3.37;97.86
32733;BME280;11867;51.198;11.966;2023-04-10T01:07:14;101377.00;;;3.68;98.03
32733;BME280;11867;51.198;11.966;2023-04-10T01:08:28;101374.72;;;3.84;95.94
32733;BME280;11867;51.198;11.966;2023-04-10T01:09:36;101371.19;;;3.91;95.44
32733;BME280;11867;51.198;11.966;2023-04-10T01:10:45;101378.28;;;3.58;95.59
32733;BME280;11867;51.198;11.966;2023-04-10T01:11:53;101385.09;;;3.68;96.14
32733;BME280;11867;51.198;11.966;2023-04-10T01:13:02;101371.22;;;3.71;96.50
32733;BME280;11867;51.198;11.966;2023-04-10T01:14:12;101374.72;;;3.71;95.83
32733;BME280;11867;51.198;11.966;2023-04-10T01:15:19;101373.31;;;3.62;96.33
32733;BME280;11867;51.198;11.966;2023-04-10T01:16:26;101371.41;;;3.69;95.62
32733;BME280;11867;51.198;11.966;2023-04-10T01:17:41;101369.75;;;3.81;94.91
32733;BME280;11867;51.198;11.966;2023-04-10T01:18:47;101368.91;;;3.68;94.76
32733;BME280;11867;51.198;11.966;2023-04-10T01:20:04;101366.41;;;3.79;94.56
32733;BME280;11867;51.198;11.966;2023-04-10T01:21:10;101365.81;;;3.71;94.85
32733;BME280;11867;51.198;11.966;2023-04-10T01:22:15;101358.97;;;3.75;94.66
32733;BME280;11867;51.198;11.966;2023-04-10T01:23:29;101366.44;;;3.73;94.71
32733;BME280;11867;51.198;11.966;2023-04-10T01:24:49;101364.19;;;3.56;95.46
32733;BME280;11867;51.198;11.966;2023-04-10T01:25:57;101358.16;;;3.34;95.88
32733;BME280;11867;51.198;11.966;2023-04-10T01:27:11;101373.53;;;3.34;96.86
32733;BME280;11867;51.198;11.966;2023-04-10T01:29:44;101372.22;;;3.83;95.52
32733;BME280;11867;51.198;11.966;2023-04-10T01:30:50;101372.38;;;4.08;94.22
32733;BME280;11867;51.198;11.966;2023-04-10T01:31:59;101359.63;;;4.29;92.78
32733;BME280;11867;51.198;11.966;2023-04-10T01:33:04;101369.16;;;4.38;91.12
32733;BME280;11867;51.198;11.966;2023-04-10T01:34:14;101370.13;;;4.57;90.52
32733;BME280;11867;51.198;11.966;2023-04-10T01:35:18;101370.84;;;4.71;89.61
32733;BME280;11867;51.198;11.966;2023-04-10T01:36:23;101375.28;;;4.58;89.58
32733;BME280;11867;51.198;11.966;2023-04-10T01:37:29;101377.28;;;4.76;88.80
32733;BME280;11867;51.198;11.966;2023-04-10T01:38:32;101376.19;;;4.84;88.52
32733;BME280;11867;51.198;11.966;2023-04-10T01:39:38;101378.81;;;4.97;87.64
32733;BME280;11867;51.198;11.966;2023-04-10T01:40:43;101372.63;;;4.90;87.38
32733;BME280;11867;51.198;11.966;2023-04-10T01:41:51;101375.69;;;4.10;89.98
32733;BME280;11867;51.198;11.966;2023-04-10T01:42:55;101369.28;;;3.98;90.74
32733;BME280;11867;51.198;11.966;2023-04-10T01:43:58;101371.00;;;3.59;92.76
32733;BME280;11867;51.198;11.966;2023-04-10T01:45:03;101372.28;;;3.36;94.40
32733;BME280;11867;51.198;11.966;2023-04-10T01:46:08;101371.84;;;3.06;96.56
32733;BME280;11867;51.198;11.966;2023-04-10T01:47:13;101372.63;;;2.80;98.29
32733;BME280;11867;51.198;11.966;2023-04-10T01:48:16;101366.81;;;2.70;99.11
32733;BME280;11867;51.198;11.966;2023-04-10T01:49:19;101367.00;;;2.61;100.00
32733;BME280;11867;51.198;11.966;2023-04-10T01:50:23;101366.00;;;2.89;100.00
32733;BME280;11867;51.198;11.966;2023-04-10T01:51:26;101366.38;;;2.73;100.00
32733;BME280;11867;51.198;11.966;2023-04-10T01:52:30;101363.09;;;2.84;100.00
32733;BME280;11867;51.198;11.966;2023-04-10T01:53:37;101358.91;;;2.61;99.96
32733;BME280;11867;51.198;11.966;2023-04-10T01:54:40;101363.94;;;2.91;100.00
32733;BME280;11867;51.198;11.966;2023-04-10T01:55:43;101355.06;;;3.11;98.50
32733;BME280;11867;51.198;11.966;2023-04-10T01:56:46;101359.41;;;3.12;98.18
32733;BME280;11867;51.198;11.966;2023-04-10T01:57:47;101356.50;;;3.07;97.45
32733;BME280;11867;51.198;11.966;2023-04-10T01:58:50;101360.25;;;3.46;97.13
32733;BME280;11867;51.198;11.966;2023-04-10T01:59:52;101361.47;;;3.76;95.75
32733;BME280;11867;51.198;11.966;2023-04-10T02:00:55;101364.34;;;3.81;94.60
32733;BME280;11867;51.198;11.966;2023-04-10T02:01:58;101367.63;;;4.03;93.46
32733;BME280;11867;51.198;11.966;2023-04-10T02:03:01;101365.31;;;4.14;92.24
32733;BME280;11867;51.198;11.966;2023-04-10T02:04:03;101355.28;;;4.28;90.87
32733;BME280;11867;51.198;11.966;2023-04-10T02:05:08;101355.50;;;4.26;90.37
32733;BME280;11867;51.198;11.966;2023-04-10T02:06:14;101357.59;;;4.24;90.23
32733;BME280;11867;51.198;11.966;2023-04-10T02:07:24;101352.38;;;4.29;89.98
32733;BME280;11867;51.198;11.966;2023-04-10T02:08:32;101357.94;;;4.41;89.90
32733;BME280;11867;51.198;11.966;2023-04-10T02:09:42;101358.34;;;4.38;88.85
32733;BME280;11867;51.198;11.966;2023-04-10T02:10:50;101360.53;;;4.09;90.14
32733;BME280;11867;51.198;11.966;2023-04-10T02:11:58;101355.84;;;4.43;89.63
32733;BME280;11867;51.198;11.966;2023-04-10T02:13:05;101345.31;;;4.28;89.18
32733;BME280;11867;51.198;11.966;2023-04-10T02:14:10;101351.31;;;4.37;89.21
32733;BME280;11867;51.198;11.966;2023-04-10T02:15:13;101356.09;;;4.35;88.78
32733;BME280;11867;51.198;11.966;2023-04-10T02:16:20;101358.78;;;4.35;88.88
32733;BME280;11867;51.198;11.966;2023-04-10T02:17:26;101354.69;;;4.19;89.03
32733;BME280;11867;51.198;11.966;2023-04-10T02:18:32;101356.34;;;4.13;89.29
32733;BME280;11867;51.198;11.966;2023-04-10T02:19:35;101348.03;;;4.21;89.25
32733;BME280;11867;51.198;11.966;2023-04-10T02:20:38;101356.72;;;4.30;89.51
32733;BME280;11867;51.198;11.966;2023-04-10T02:21:40;101353.78;;;4.38;88.90
32733;BME280;11867;51.198;11.966;2023-04-10T02:22:44;101351.56;;;4.22;89.33
32733;BME280;11867;51.198;11.966;2023-04-10T02:23:45;101346.97;;;3.64;90.83
32733;BME280;11867;51.198;11.966;2023-04-10T02:24:48;101350.06;;;3.08;93.70
32733;BME280;11867;51.198;11.966;2023-04-10T02:25:50;101357.25;;;2.60;96.91
32733;BME280;11867;51.198;11.966;2023-04-10T02:26:53;101348.66;;;2.30;99.88
32733;BME280;11867;51.198;11.966;2023-04-10T02:27:54;101348.75;;;2.50;99.98
32733;BME280;11867;51.198;11.966;2023-04-10T02:28:57;101355.59;;;2.59;100.00
32733;BME280;11867;51.198;11.966;2023-04-10T02:29:59;101349.19;;;2.67;100.00
32733;BME280;11867;51.198;11.966;2023-04-10T02:31:03;101349.44;;;2.92;98.69
32733;BME280;11867;51.198;11.966;2023-04-10T02:32:07;101352.16;;;3.19;97.83
32733;BME280;11867;51.198;11.966;2023-04-10T02:33:09;101346.34;;;3.09;96.54
32733;BME280;11867;51.198;11.966;2023-04-10T02:34:11;101350.28;;;3.26;96.32
32733;BME280;11867;51.198;11.966;2023-04-10T02:35:14;101354.88;;;3.12;95.72
32733;BME280;11867;51.198;11.966;2023-04-10T02:36:15;101358.19;;;3.14;95.85
32733;BME280;11867;51.198;11.966;2023-04-10T02:37:18;101355.06;;;3.51;94.80
32733;BME280;11867;51.198;11.966;2023-04-10T02:38:19;101358.53;;;3.78;93.41
32733;BME280;11867;51.198;11.966;2023-04-10T02:39:22;101364.31;;;4.01;91.93
32733;BME280;11867;51.198;11.966;2023-04-10T02:40:24;101362.63;;;4.00;90.93
32733;BME280;11867;51.198;11.966;2023-04-10T02:41:26;101357.63;;;4.11;90.49
32733;BME280;11867;51.198;11.966;2023-04-10T02:42:28;101365.72;;;4.11;90.39
32733;BME280;11867;51.198;11.966;2023-04-10T02:43:30;101362.88;;;3.86;90.32
32733;BME280;11867;51.198;11.966;2023-04-10T02:44:32;101363.75;;;3.66;91.31
32733;BME280;11867;51.198;11.966;2023-04-10T02:45:34;101368.88;;;3.94;91.54
32733;BME280;11867;51.198;11.966;2023-04-10T02:46:36;101365.91;;;4.09;90.48
32733;BME280;11867;51.198;11.966;2023-04-10T02:47:40;101366.44;;;3.53;91.03
32733;BME280;11867;51.198;11.966;2023-04-10T02:48:41;101367.31;;;3.33;92.87
32733;BME280;11867;51.198;11.966;2023-04-10T02:49:44;101362.94;;;3.32;93.80
32733;BME280;11867;51.198;11.966;2023-04-10T02:50:45;101366.03;;;3.16;94.08
32733;BME280;11867;51.198;11.966;2023-04-10T02:51:48;101362.31;;;3.43;94.19
32733;BME280;11867;51.198;11.966;2023-04-10T02:52:50;101370.41;;;3.57;93.29
32733;BME280;11867;51.198;11.966;2023-04-10T02:53:52;101369.13;;;3.73;92.55
32733;BME280;11867;51.198;11.966;2023-04-10T02:54:54;101367.50;;;3.38;92.32
32733;BME280;11867;51.198;11.966;2023-04-10T02:55:57;101365.81;;;2.97;94.23
32733;BME280;11867;51.198;11.966;2023-04-10T02:56:59;101371.09;;;2.44;96.92
32733;BME280;11867;51.198;11.966;2023-04-10T02:58:02;101373.81;;;2.57;97.97
32733;BME280;11867;51.198;11.966;2023-04-10T02:59:03;101369.75;;;2.95;97.60
32733;BME280;11867;51.198;11.966;2023-04-10T03:00:07;101379.63;;;2.68;97.11
32733;BME280;11867;51.198;11.966;2023-04-10T03:01:09;101380.91;;;2.85;97.77
32733;BME280;11867;51.198;11.966;2023-04-10T03:02:12;101380.34;;;2.96;95.93
32733;BME280;11867;51.198;11.966;2023-04-10T03:03:15;101377.22;;;2.93;95.08
32733;BME280;11867;51.198;11.966;2023-04-10T03:04:17;101376.19;;;2.32;98.30
32733;BME280;11867;51.198;11.966;2023-04-10T03:05:20;101380.06;;;2.16;100.00
32733;BME280;11867;51.198;11.966;2023-04-10T03:06:22;101384.94;;;2.41;99.83
32733;BME280;11867;51.198;11.966;2023-04-10T03:07:27;101379.03;;;2.17;100.00
32733;BME280;11867;51.198;11.966;2023-04-10T03:08:29;101378.94;;;2.46;100.00
32733;BME280;11867;51.198;11.966;2023-04-10T03:09:31;101380.19;;;2.50;99.45
32733;BME280;11867;51.198;11.966;2023-04-10T03:10:33;101379.09;;;2.31;99.73
32733;BME280;11867;51.198;11.966;2023-04-10T03:11:35;101381.94;;;2.22;100.00
32733;BME280;11867;51.198;11.966;2023-04-10T03:12:38;101377.81;;;2.27;100.00
32733;BME280;11867;51.198;11.966;2023-04-10T03:13:39;101377.66;;;2.35;100.00
32733;BME280;11867;51.198;11.966;2023-04-10T03:14:42;101382.69;;;2.51;99.93
32733;BME280;11867;51.198;11.966;2023-04-10T03:15:43;101384.09;;;2.34;99.45
32733;BME280;11867;51.198;11.966;2023-04-10T03:16:46;101378.09;;;1.97;100.00
32733;BME280;11867;51.198;11.966;2023-04-10T03:17:49;101380.91;;;1.82;100.00
32733;BME280;11867;51.198;11.966;2023-04-10T03:18:52;101379.28;;;1.88;100.00
32733;BME280;11867;51.198;11.966;2023-04-10T03:19:55;101387.97;;;1.90;100.00
32733;BME280;11867;51.198;11.966;2023-04-10T03:20:56;101382.69;;;2.03;100.00
32733;BME280;11867;51.198;11.966;2023-04-10T03:21:59;101370.06;;;2.04;100.00
32733;BME280;11867;51.198;11.966;2023-04-10T03:23:00;101378.13;;;1.69;100.00
32733;BME280;11867;51.198;11.966;2023-04-10T03:24:03;101379.00;;;1.48;100.00
32733;BME280;11867;51.198;11.966;2023-04-10T03:25:06;101373.50;;;1.34;100.00
32733;BME280;11867;51.198;11.966;2023-04-10T03:26:09;101383.09;;;1.44;100.00
32733;BME280;11867;51.198;11.966;2023-04-10T03:27:10;101379.34;;;1.66;100.00
32733;BME280;11867;51.198;11.966;2023-04-10T03:28:13;101381.00;;;2.02;100.00
32733;BME280;11867;51.198;11.966;2023-04-10T03:29:14;101377.78;;;2.13;100.00
32733;BME280;11867;51.198;11.966;2023-04-10T03:30:19;101384.59;;;2.09;100.00
32733;BME280;11867;51.198;11.966;2023-04-10T03:31:21;101381.66;;;2.52;100.00
32733;BME280;11867;51.198;11.966;2023-04-10T03:32:24;101381.50;;;2.67;100.00
32733;BME280;11867;51.198;11.966;2023-04-10T03:33:25;101378.22;;;2.78;99.44
32733;BME280;11867;51.198;11.966;2023-04-10T03:34:29;101374.75;;;2.98;98.22
32733;BME280;11867;51.198;11.966;2023-04-10T03:35:31;101377.25;;;3.19;96.42
32733;BME280;11867;51.198;11.966;2023-04-10T03:36:33;101374.75;;;3.38;95.04
32733;BME280;11867;51.198;11.966;2023-04-10T03:37:36;101373.09;;;3.10;94.40
32733;BME280;11867;51.198;11.966;2023-04-10T03:38:38;101370.59;;;3.15;94.62
32733;BME280;11867;51.198;11.966;2023-04-10T03:39:40;101373.09;;;3.17;94.40
32733;BME280;11867;51.198;11.966;2023-04-10T03:40:42;101369.38;;;3.25;94.11
32733;BME280;11867;51.198;11.966;2023-04-10T03:41:44;101371.84;;;3.26;93.27
32733;BME280;11867;51.198;11.966;2023-04-10T03:42:46;101374.75;;;3.18;93.07
32733;BME280;11867;51.198;11.966;2023-04-10T03:43:48;101378.00;;;2.73;94.42
32733;BME280;11867;51.198;11.966;2023-04-10T03:44:50;101371.38;;;2.69;95.84
32733;BME280;11867;51.198;11.966;2023-04-10T03:45:53;101376.78;;;2.89;96.00
32733;BME280;11867;51.198;11.966;2023-04-10T03:46:54;101373.50;;;3.00;95.37
32733;BME280;11867;51.198;11.966;2023-04-10T03:47:57;101378.25;;;2.98;94.70
32733;BME280;11867;51.198;11.966;2023-04-10T03:48:59;101372.69;;;3.13;94.24
32733;BME280;11867;51.198;11.966;2023-04-10T03:50:03;101368.13;;;3.07;94.16
32733;BME280;11867;51.198;11.966;2023-04-10T03:51:06;101363.53;;;3.08;93.58
32733;BME280;11867;51.198;11.966;2023-04-10T03:52:08;101369.16;;;3.26;93.15
32733;BME280;11867;51.198;11.966;2023-04-10T03:53:10;101369.78;;;3.48;92.48
32733;BME280;11867;51.198;11.966;2023-04-10T03:54:12;101369.16;;;3.46;92.15
32733;BME280;11867;51.198;11.966;2023-04-10T03:55:14;101370.19;;;3.52;91.33
32733;BME280;11867;51.198;11.966;2023-04-10T03:56:19;101369.16;;;3.26;91.21
32733;BME280;11867;51.198;11.966;2023-04-10T03:57:21;101370.38;;;2.90;93.03
32733;BME280;11867;51.198;11.966;2023-04-10T03:58:23;101361.44;;;2.83;93.85
32733;BME280;11867;51.198;11.966;2023-04-10T03:59:25;101362.47;;;2.82;94.27
32733;BME280;11867;51.198;11.966;2023-04-10T04:00:39;101364.38;;;3.01;94.15
32733;BME280;11867;51.198;11.966;2023-04-10T04:01:40;101372.22;;;2.83;94.02
32733;BME280;11867;51.198;11.966;2023-04-10T04:02:43;101375.88;;;2.55;95.66
32733;BME280;11867;51.198;11.966;2023-04-10T04:03:45;101370.03;;;2.38;97.00
32733;BME280;11867;51.198;11.966;2023-04-10T04:04:48;101371.25;;;2.36;97.72
32733;BME280;11867;51.198;11.966;2023-04-10T04:05:51;101366.09;;;2.41;97.77
32733;BME280;11867;51.198;11.966;2023-04-10T04:06:53;101366.44;;;2.31;97.95
32733;BME280;11867;51.198;11.966;2023-04-10T04:07:55;101371.28;;;2.42;97.62
32733;BME280;11867;51.198;11.966;2023-04-10T04:08:57;101365.03;;;2.35;97.86
32733;BME280;11867;51.198;11.966;2023-04-10T04:09:59;101372.91;;;2.43;97.19
32733;BME280;11867;51.198;11.966;2023-04-10T04:11:01;101373.06;;;2.22;98.14
32733;BME280;11867;51.198;11.966;2023-04-10T04:12:03;101371.66;;;2.33;97.60
32733;BME280;11867;51.198;11.966;2023-04-10T04:13:06;101366.22;;;2.19;97.90
32733;BME280;11867;51.198;11.966;2023-04-10T04:14:07;101356.31;;;2.27;98.02
32733;BME280;11867;51.198;11.966;2023-04-10T04:15:10;101368.00;;;2.54;97.25
32733;BME280;11867;51.198;11.966;2023-04-10T04:16:11;101361.44;;;2.83;96.75
32733;BME280;11867;51.198;11.966;2023-04-10T04:17:14;101353.81;;;3.07;95.08
32733;BME280;11867;51.198;11.966;2023-04-10T04:18:15;101364.81;;;3.32;93.87
32733;BME280;11867;51.198;11.966;2023-04-10T04:19:18;101363.34;;;3.42;92.47
32733;BME280;11867;51.198;11.966;2023-04-10T04:20:19;101369.78;;;3.35;92.10
32733;BME280;11867;51.198;11.966;2023-04-10T04:21:23;101361.91;;;3.13;92.42
32733;BME280;11867;51.198;11.966;2023-04-10T04:22:26;101367.69;;;3.37;92.02
32733;BME280;11867;51.198;11.966;2023-04-10T04:23:29;101370.00;;;3.40;91.49
32733;BME280;11867;51.198;11.966;2023-04-10T04:24:30;101364.00;;;3.25;91.54
32733;BME280;11867;51.198;11.966;2023-04-10T04:25:33;101374.56;;;3.39;91.28
32733;BME280;11867;51.198;11.966;2023-04-10T04:26:35;101367.94;;;3.35;91.05
32733;BME280;11867;51.198;11.966;2023-04-10T04:27:37;101369.56;;;3.36;91.00
32733;BME280;11867;51.198;11.966;2023-04-10T04:28:39;101375.19;;;3.41;91.10
32733;BME280;11867;51.198;11.966;2023-04-10T04:29:41;101377.88;;;3.28;91.34
32733;BME280;11867;51.198;11.966;2023-04-10T04:30:43;101370.59;;;3.49;91.36
32733;BME280;11867;51.198;11.966;2023-04-10T04:31:45;101373.09;;;3.57;90.84
32733;BME280;11867;51.198;11.966;2023-04-10T04:32:47;101373.31;;;3.62;90.53
32733;BME280;11867;51.198;11.966;2023-04-10T04:33:49;101374.72;;;3.71;89.88
32733;BME280;11867;51.198;11.966;2023-04-10T04:34:51;101360.63;;;3.69;88.89
32733;BME280;11867;51.198;11.966;2023-04-10T04:35:53;101376.41;;;3.72;88.74
32733;BME280;11867;51.198;11.966;2023-04-10T04:36:56;101374.13;;;3.69;88.71
32733;BME280;11867;51.198;11.966;2023-04-10T04:37:59;101366.03;;;3.69;88.88
32733;BME280;11867;51.198;11.966;2023-04-10T04:39:00;101373.88;;;3.84;88.60
32733;BME280;11867;51.198;11.966;2023-04-10T04:40:04;101370.19;;;3.38;90.07
32733;BME280;11867;51.198;11.966;2023-04-10T04:41:06;101372.88;;;2.98;91.73
32733;BME280;11867;51.198;11.966;2023-04-10T04:42:09;101371.81;;;2.86;93.62
32733;BME280;11867;51.198;11.966;2023-04-10T04:43:10;101365.22;;;3.02;93.61
32733;BME280;11867;51.198;11.966;2023-04-10T04:44:13;101367.69;;;2.97;93.14
32733;BME280;11867;51.198;11.966;2023-04-10T04:45:17;101365.03;;;3.17;92.71
32733;BME280;11867;51.198;11.966;2023-04-10T04:46:22;101365.22;;;3.42;92.16
32733;BME280;11867;51.198;11.966;2023-04-10T04:47:23;101367.69;;;3.57;91.16
32733;BME280;11867;51.198;11.966;2023-04-10T04:48:26;101369.75;;;3.61;90.26
32733;BME280;11867;51.198;11.966;2023-04-10T04:49:28;101363.53;;;3.61;89.71
32733;BME280;11867;51.198;11.966;2023-04-10T04:50:31;101366.25;;;3.48;89.53
32733;BME280;11867;51.198;11.966;2023-04-10T04:51:33;101368.53;;;3.64;89.83
32733;BME280;11867;51.198;11.966;2023-04-10T04:52:37;101370.16;;;3.85;89.20
32733;BME280;11867;51.198;11.966;2023-04-10T04:53:39;101368.06;;;3.94;88.21
32733;BME280;11867;51.198;11.966;2023-04-10T04:54:42;101374.69;;;3.98;87.65
32733;BME280;11867;51.198;11.966;2023-04-10T04:55:43;101369.28;;;3.98;87.49
32733;BME280;11867;51.198;11.966;2023-04-10T04:56:45;101376.50;;;4.11;86.99
32733;BME280;11867;51.198;11.966;2023-04-10T04:57:47;101375.69;;;4.10;86.96
32733;BME280;11867;51.198;11.966;2023-04-10T04:58:49;101382.13;;;4.16;86.65
32733;BME280;11867;51.198;11.966;2023-04-10T04:59:51;101370.09;;;4.05;86.78
32733;BME280;11867;51.198;11.966;2023-04-10T05:00:53;101367.56;;;4.17;87.15
32733;BME280;11867;51.198;11.966;2023-04-10T05:01:55;101369.84;;;4.13;86.74
32733;BME280;11867;51.198;11.966;2023-04-10T05:02:58;101371.00;;;3.72;87.63
32733;BME280;11867;51.198;11.966;2023-04-10T05:04:00;101370.59;;;3.62;88.66
32733;BME280;11867;51.198;11.966;2023-04-10T05:05:02;101369.78;;;3.55;89.45
32733;BME280;11867;51.198;11.966;2023-04-10T05:06:05;101364.59;;;3.67;89.52
32733;BME280;11867;51.198;11.966;2023-04-10T05:07:08;101368.31;;;3.72;89.19
32733;BME280;11867;51.198;11.966;2023-04-10T05:08:11;101369.56;;;3.63;89.33
32733;BME280;11867;51.198;11.966;2023-04-10T05:09:13;101369.75;;;3.61;89.22
32733;BME280;11867;51.198;11.966;2023-04-10T05:10:15;101361.03;;;2.99;91.26
32733;BME280;11867;51.198;11.966;2023-04-10T05:11:17;101374.25;;;2.61;94.23
32733;BME280;11867;51.198;11.966;2023-04-10T05:12:19;101370.56;;;2.20;96.69
32733;BME280;11867;51.198;11.966;2023-04-10T05:13:22;101368.13;;;2.32;97.26
32733;BME280;11867;51.198;11.966;2023-04-10T05:14:23;101366.78;;;2.15;97.92
32733;BME280;11867;51.198;11.966;2023-04-10T05:15:26;101372.06;;;1.88;99.90
32733;BME280;11867;51.198;11.966;2023-04-10T05:16:27;101368.03;;;1.77;100.00
32733;BME280;11867;51.198;11.966;2023-04-10T05:17:30;101367.66;;;2.22;100.00
32733;BME280;11867;51.198;11.966;2023-04-10T05:18:33;101365.63;;;2.31;99.62
32733;BME280;11867;51.198;11.966;2023-04-10T05:19:35;101365.38;;;2.19;99.60
32733;BME280;11867;51.198;11.966;2023-04-10T05:20:38;101373.19;;;2.07;100.00
32733;BME280;11867;51.198;11.966;2023-04-10T05:21:39;101371.13;;;2.09;100.00
32733;BME280;11867;51.198;11.966;2023-04-10T05:22:42;101372.25;;;2.28;100.00
32733;BME280;11867;51.198;11.966;2023-04-10T05:23:45;101371.63;;;2.26;100.00
32733;BME280;11867;51.198;11.966;2023-04-10T05:24:47;101373.38;;;2.54;99.71
32733;BME280;11867;51.198;11.966;2023-04-10T05:25:49;101376.50;;;2.64;99.08
32733;BME280;11867;51.198;11.966;2023-04-10T05:26:51;101373.88;;;2.84;98.24
32733;BME280;11867;51.198;11.966;2023-04-10T05:27:53;101367.09;;;3.21;96.91
32733;BME280;11867;51.198;11.966;2023-04-10T05:28:56;101369.34;;;3.51;94.63
32733;BME280;11867;51.198;11.966;2023-04-10T05:29:58;101361.06;;;3.66;93.17
32733;BME280;11867;51.198;11.966;2023-04-10T05:31:00;101368.50;;;3.91;91.41